createdAt,value
2022-12-15T00:02:18.369Z,14.77
2022-12-15T00:05:04.038Z,13.52
2022-12-15T00:07:51.402Z,12.65
2022-12-15T00:10:37.890Z,14.10
2022-12-15T00:13:28.867Z,13.60
2022-12-15T00:16:14.400Z,13.07
2022-12-15T00:19:00.078Z,14.70
2022-12-15T00:21:45.468Z,14.82
2022-12-15T00:24:32.658Z,13.45
2022-12-15T00:27:17.947Z,14.88
2022-12-15T00:30:03.512Z,13.57
2022-12-15T00:32:49.473Z,13.43
2022-12-15T00:35:35.199Z,14.50
2022-12-15T00:38:25.135Z,14.90
2022-12-15T00:40:59.195Z,13.88
2022-12-15T00:43:27.694Z,15.73
2022-12-15T00:46:14.184Z,14.27
2022-12-15T00:48:42.992Z,15.45
2022-12-15T00:51:10.635Z,15.38
2022-12-15T00:53:56.830Z,14.52
2022-12-15T00:56:43.694Z,15.43
2022-12-15T00:59:29.331Z,14.98
2022-12-15T01:02:14.821Z,15.02
2022-12-15T01:05:00.793Z,15.68
2022-12-15T01:07:49.645Z,14.55
2022-12-15T01:10:35.804Z,14.85
2022-12-15T01:13:23.308Z,15.00
2022-12-15T01:16:08.694Z,14.50
2022-12-15T01:18:54.345Z,14.52
2022-12-15T01:21:24.962Z,15.57
2022-12-15T01:23:53.874Z,16.65
2022-12-15T01:26:21.921Z,14.80
2022-12-15T01:28:51.532Z,15.57
2022-12-15T01:31:19.768Z,16.02
2022-12-15T01:33:48.059Z,15.48
2022-12-15T01:36:16.236Z,16.17
2022-12-15T01:38:46.937Z,17.15
2022-12-15T01:41:16.448Z,16.42
2022-12-15T01:46:14.955Z,15.13
2022-12-15T01:48:44.180Z,16.65
2022-12-15T01:51:14.838Z,16.48
2022-12-15T01:53:44.897Z,16.83
2022-12-15T01:56:13.396Z,16.00
2022-12-15T01:58:43.466Z,16.80
2022-12-15T02:01:11.634Z,17.08
2022-12-15T02:03:42.093Z,16.33
2022-12-15T02:06:11.507Z,17.25
2022-12-15T02:08:39.917Z,16.60
2022-12-15T02:11:15.830Z,17.67
2022-12-15T02:13:49.773Z,16.85
2022-12-15T02:16:21.989Z,17.35
2022-12-15T02:18:57.300Z,17.30
2022-12-15T02:21:28.998Z,17.75
2022-12-15T02:24:20.373Z,17.65
2022-12-15T02:27:07.306Z,16.70
2022-12-15T02:29:48.322Z,17.88
2022-12-15T02:32:19.512Z,17.88
2022-12-15T02:34:53.097Z,17.38
2022-12-15T02:37:24.025Z,16.80
2022-12-15T02:39:52.615Z,17.30
2022-12-15T02:42:21.155Z,16.85
2022-12-15T02:44:51.984Z,18.23
2022-12-15T02:47:33.809Z,16.42
2022-12-15T02:50:11.654Z,18.20
2022-12-15T02:52:47.871Z,17.98
2022-12-15T02:55:18.395Z,18.13
2022-12-15T02:57:52.927Z,17.77
2022-12-15T03:00:21.386Z,18.00
2022-12-15T03:02:52.904Z,17.73
2022-12-15T03:05:22.033Z,18.42
2022-12-15T03:07:51.067Z,18.73
2022-12-15T03:10:19.532Z,17.33
2022-12-15T03:12:47.768Z,20.35
2022-12-15T03:15:15.884Z,18.20
2022-12-15T03:17:44.140Z,19.55
2022-12-15T03:20:14.533Z,17.73
2022-12-15T03:22:42.711Z,18.35
2022-12-15T03:25:10.935Z,19.70
2022-12-15T03:27:38.945Z,21.40
2022-12-15T03:30:07.760Z,21.83
2022-12-15T03:32:35.912Z,19.55
2022-12-15T03:35:04.101Z,19.67
2022-12-15T03:37:33.733Z,19.38
2022-12-15T03:40:02.009Z,18.08
2022-12-15T03:42:47.286Z,19.88
2022-12-15T03:45:15.636Z,19.23
2022-12-15T03:47:43.765Z,18.77
2022-12-15T03:50:12.950Z,21.27
2022-12-15T03:52:43.134Z,20.15
2022-12-15T03:55:12.088Z,18.67
2022-12-15T03:57:40.380Z,19.75
2022-12-15T04:00:12.666Z,19.50
2022-12-15T04:02:43.742Z,19.85
2022-12-15T04:05:15.116Z,18.90
2022-12-15T04:07:44.999Z,21.15
2022-12-15T04:10:13.669Z,18.88
2022-12-15T04:12:41.683Z,21.48
2022-12-15T04:15:10.520Z,20.55
2022-12-15T04:17:39.110Z,21.15
2022-12-15T04:20:10.466Z,21.00
2022-12-15T04:22:39.451Z,20.73
2022-12-15T04:25:28.183Z,19.67
2022-12-15T04:28:13.446Z,20.70
2022-12-15T04:31:01.135Z,22.63
2022-12-15T04:33:46.361Z,20.42
2022-12-15T04:36:32.189Z,22.35
2022-12-15T04:39:18.225Z,22.17
2022-12-15T04:42:05.362Z,24.02
2022-12-15T04:44:51.129Z,24.63
2022-12-15T04:47:36.475Z,22.93
2022-12-15T04:50:22.289Z,21.85
2022-12-15T04:53:08.013Z,21.37
2022-12-15T04:55:53.651Z,20.58
2022-12-15T04:58:40.473Z,22.10
2022-12-15T05:01:25.874Z,23.23
2022-12-15T05:04:11.422Z,23.13
2022-12-15T05:06:57.126Z,20.77
2022-12-15T05:09:42.586Z,21.58
2022-12-15T05:15:16.758Z,19.73
2022-12-15T05:18:02.466Z,20.88
2022-12-15T05:20:49.937Z,20.63
2022-12-15T05:23:36.634Z,22.52
2022-12-15T05:26:21.832Z,21.98
2022-12-15T05:29:07.621Z,22.40
2022-12-15T05:31:52.069Z,21.73
2022-12-15T05:34:21.269Z,22.17
2022-12-15T05:36:49.784Z,22.63
2022-12-15T05:39:18.330Z,24.10
2022-12-15T05:41:47.064Z,23.70
2022-12-15T05:44:15.731Z,23.13
2022-12-15T05:46:45.959Z,22.13
2022-12-15T05:49:15.447Z,22.60
2022-12-15T05:51:44.473Z,21.95
2022-12-15T05:54:13.624Z,22.02
2022-12-15T05:56:41.794Z,23.70
2022-12-15T05:59:10.076Z,22.98
2022-12-15T06:01:38.242Z,23.30
2022-12-15T06:04:08.719Z,22.95
2022-12-15T06:06:36.934Z,22.15
2022-12-15T06:09:05.540Z,27.17
2022-12-15T06:11:33.680Z,23.70
2022-12-15T06:14:01.724Z,23.33
2022-12-15T06:16:30.153Z,25.05
2022-12-15T06:19:00.639Z,28.88
2022-12-15T06:21:31.761Z,38.40
2022-12-15T06:24:03.391Z,35.20
2022-12-15T06:26:32.026Z,32.50
2022-12-15T06:29:02.704Z,34.67
2022-12-15T06:31:31.696Z,31.08
2022-12-15T06:34:02.385Z,25.25
2022-12-15T06:36:32.882Z,32.22
2022-12-15T06:39:01.780Z,30.05
2022-12-15T06:41:31.107Z,24.92
2022-12-15T06:43:59.660Z,23.25
2022-12-15T06:46:28.616Z,23.38
2022-12-15T06:48:56.971Z,21.13
2022-12-15T06:51:25.454Z,23.45
2022-12-15T06:53:56.315Z,26.17
2022-12-15T06:56:32.620Z,23.48
2022-12-15T07:01:30.454Z,20.92
2022-12-15T07:04:00.305Z,21.10
2022-12-15T07:06:29.751Z,22.17
2022-12-15T07:08:59.503Z,28.35
2022-12-15T07:11:28.253Z,41.28
2022-12-15T07:13:56.554Z,29.08
2022-12-15T07:16:25.114Z,31.92
2022-12-15T07:18:53.720Z,29.70
2022-12-15T07:21:22.025Z,30.77
2022-12-15T07:23:55.249Z,34.50
2022-12-15T07:26:25.790Z,25.42
2022-12-15T07:28:56.279Z,25.52
2022-12-15T07:31:25.126Z,21.77
2022-12-15T07:33:54.709Z,23.02
2022-12-15T07:36:23.282Z,26.20
2022-12-15T07:38:51.935Z,28.60
2022-12-15T07:41:21.080Z,23.95
2022-12-15T07:43:50.684Z,21.40
2022-12-15T07:46:19.377Z,22.23
2022-12-15T07:48:50.813Z,26.92
2022-12-15T07:51:20.477Z,26.48
2022-12-15T07:53:52.117Z,26.15
2022-12-15T07:56:20.917Z,24.52
2022-12-15T07:58:50.728Z,24.85
2022-12-15T08:01:19.537Z,24.73
2022-12-15T08:03:48.405Z,32.08
2022-12-15T08:06:16.941Z,24.85
2022-12-15T08:08:51.332Z,24.38
2022-12-15T08:11:22.401Z,23.10
2022-12-15T08:14:02.698Z,21.42
2022-12-15T08:16:36.806Z,22.63
2022-12-15T08:19:06.529Z,21.45
2022-12-15T08:21:35.064Z,22.88
2022-12-15T08:24:04.132Z,22.10
2022-12-15T08:26:32.379Z,26.83
2022-12-15T08:31:54.654Z,24.15
2022-12-15T08:34:23.336Z,26.95
2022-12-15T08:36:51.268Z,30.75
2022-12-15T08:39:23.958Z,25.05
2022-12-15T08:41:52.122Z,23.70
2022-12-15T08:44:21.668Z,22.63
2022-12-15T08:46:51.397Z,23.70
2022-12-15T08:49:22.121Z,22.58
2022-12-15T08:51:50.841Z,22.48
2022-12-15T08:54:22.393Z,21.88
2022-12-15T08:56:53.555Z,21.20
2022-12-15T08:59:23.603Z,28.52
2022-12-15T09:01:52.394Z,23.13
2022-12-15T09:04:20.833Z,22.15
2022-12-15T09:06:50.888Z,21.88
2022-12-15T09:09:19.879Z,22.92
2022-12-15T09:11:48.209Z,22.15
2022-12-15T09:14:16.449Z,23.05
2022-12-15T09:16:46.129Z,23.90
2022-12-15T09:19:21.967Z,23.15
2022-12-15T09:21:50.136Z,22.42
2022-12-15T09:24:28.857Z,23.40
2022-12-15T09:27:03.318Z,23.02
2022-12-15T09:29:31.552Z,22.15
2022-12-15T09:32:01.265Z,22.83
2022-12-15T09:34:29.285Z,22.48
2022-12-15T09:36:57.994Z,21.85
2022-12-15T09:39:26.181Z,19.88
2022-12-15T09:41:55.984Z,20.63
2022-12-15T09:44:25.776Z,21.67
2022-12-15T09:47:02.026Z,22.08
2022-12-15T09:49:39.700Z,21.25
2022-12-15T09:52:11.773Z,20.08
2022-12-15T09:54:41.843Z,21.50
2022-12-15T09:57:13.165Z,21.00
2022-12-15T09:59:45.089Z,21.65
2022-12-15T10:02:23.598Z,23.15
2022-12-15T10:04:56.806Z,21.02
2022-12-15T10:07:29.925Z,21.88
2022-12-15T10:09:58.406Z,19.73
2022-12-15T10:12:29.068Z,22.00
2022-12-15T10:15:04.774Z,23.45
2022-12-15T10:17:38.021Z,23.13
2022-12-15T10:20:13.544Z,23.08
2022-12-15T10:22:42.304Z,23.50
2022-12-15T10:25:18.759Z,23.35
2022-12-15T10:28:00.093Z,24.63
2022-12-15T10:30:28.340Z,26.45
2022-12-15T10:33:01.349Z,21.42
2022-12-15T10:35:32.638Z,26.15
2022-12-15T10:38:01.762Z,22.95
2022-12-15T10:40:50.844Z,21.20
2022-12-15T10:43:26.347Z,20.20
2022-12-15T10:46:02.458Z,19.13
2022-12-15T10:48:30.608Z,18.53
2022-12-15T10:51:18.451Z,18.33
2022-12-15T10:53:50.516Z,25.42
2022-12-15T10:56:28.836Z,19.63
2022-12-15T10:59:01.943Z,19.00
2022-12-15T11:01:31.099Z,19.75
2022-12-15T11:04:00.007Z,21.20
2022-12-15T11:06:31.616Z,23.10
2022-12-15T11:09:08.889Z,21.23
2022-12-15T11:11:57.132Z,19.35
2022-12-15T11:14:28.564Z,19.70
2022-12-15T11:16:57.529Z,19.08
2022-12-15T11:19:35.276Z,20.00
2022-12-15T11:22:09.337Z,19.67
2022-12-15T11:24:47.575Z,19.15
2022-12-15T11:27:35.116Z,18.95
2022-12-15T11:30:12.133Z,17.58
2022-12-15T11:32:42.586Z,17.98
2022-12-15T11:35:13.264Z,18.02
2022-12-15T11:37:44.023Z,17.40
2022-12-15T11:40:31.638Z,17.40
2022-12-15T11:43:06.674Z,19.02
2022-12-15T11:45:38.374Z,17.38
2022-12-15T11:48:11.060Z,18.92
2022-12-15T11:50:43.849Z,18.20
2022-12-15T11:53:19.875Z,18.52
2022-12-15T11:55:49.880Z,19.23
2022-12-15T11:58:45.333Z,17.55
2022-12-15T12:01:24.067Z,16.60
2022-12-15T12:04:01.738Z,15.73
2022-12-15T12:06:34.123Z,17.05
2022-12-15T12:09:20.703Z,16.80
2022-12-15T12:11:51.671Z,16.55
2022-12-15T12:14:28.366Z,16.25
2022-12-15T12:16:59.608Z,17.67
2022-12-15T12:19:32.235Z,17.40
2022-12-15T12:22:03.842Z,16.35
2022-12-15T12:24:38.807Z,16.75
2022-12-15T12:27:11.507Z,17.08
2022-12-15T12:29:41.982Z,16.50
2022-12-15T12:32:14.393Z,17.92
2022-12-15T12:34:51.583Z,16.95
2022-12-15T12:37:23.987Z,19.13
2022-12-15T12:39:55.235Z,18.58
2022-12-15T12:42:27.010Z,18.83
2022-12-15T12:44:55.256Z,19.63
2022-12-15T12:47:25.681Z,20.10
2022-12-15T12:49:55.914Z,19.73
2022-12-15T12:52:26.033Z,21.45
2022-12-15T12:55:00.727Z,20.58
2022-12-15T12:57:36.279Z,19.70
2022-12-15T13:00:07.232Z,19.15
2022-12-15T13:02:45.199Z,18.65
2022-12-15T13:05:27.678Z,18.65
2022-12-15T13:07:56.651Z,19.27
2022-12-15T13:10:26.528Z,19.25
2022-12-15T13:12:55.231Z,19.73
2022-12-15T13:15:35.190Z,19.98
2022-12-15T13:18:07.213Z,20.00
2022-12-15T13:20:36.538Z,21.60
2022-12-15T13:23:23.417Z,21.63
2022-12-15T13:28:43.958Z,20.98
2022-12-15T13:31:31.706Z,19.83
2022-12-15T13:34:04.654Z,20.38
2022-12-15T13:36:55.084Z,21.35
2022-12-15T13:39:34.760Z,20.67
2022-12-15T13:42:51.296Z,19.70
2022-12-15T13:45:33.248Z,22.08
2022-12-15T13:48:07.153Z,20.45
2022-12-15T13:50:39.881Z,21.05
2022-12-15T13:53:20.229Z,20.73
2022-12-15T13:56:01.942Z,20.77
2022-12-15T13:58:33.112Z,19.67
2022-12-15T14:01:03.112Z,20.58
2022-12-15T14:03:33.320Z,19.33
2022-12-15T14:06:02.649Z,18.85
2022-12-15T14:08:31.636Z,20.65
2022-12-15T14:11:07.010Z,19.85
2022-12-15T14:13:49.103Z,21.08
2022-12-15T14:16:21.676Z,20.13
2022-12-15T14:19:05.088Z,19.70
2022-12-15T14:21:34.678Z,19.85
2022-12-15T14:26:51.144Z,20.75
2022-12-15T14:29:19.226Z,19.92
2022-12-15T14:31:49.583Z,21.42
2022-12-15T14:34:24.370Z,22.30
2022-12-15T14:36:55.168Z,21.48
2022-12-15T14:39:25.792Z,21.95
2022-12-15T14:41:55.398Z,23.30
2022-12-15T14:44:31.230Z,23.63
2022-12-15T14:47:08.482Z,23.00
2022-12-15T14:49:41.420Z,22.90
2022-12-15T14:52:26.805Z,22.85
2022-12-15T14:54:57.646Z,26.10
2022-12-15T14:57:27.294Z,27.15
2022-12-15T14:59:57.821Z,25.70
2022-12-15T15:02:27.423Z,25.70
2022-12-15T15:04:57.898Z,27.80
2022-12-15T15:07:29.839Z,28.52
2022-12-15T15:09:58.241Z,28.38
2022-12-15T15:12:40.746Z,28.92
2022-12-15T15:15:09.934Z,29.05
2022-12-15T15:17:39.209Z,32.58
2022-12-15T15:20:09.342Z,29.60
2022-12-15T15:22:41.079Z,34.13
2022-12-15T15:25:39.992Z,31.65
2022-12-15T15:28:16.804Z,30.20
2022-12-15T15:30:48.322Z,29.48
2022-12-15T15:33:17.437Z,30.30
2022-12-15T15:35:47.088Z,31.15
2022-12-15T15:38:23.351Z,30.95
2022-12-15T15:40:52.363Z,31.17
2022-12-15T15:43:20.533Z,30.23
2022-12-15T15:45:49.481Z,29.73
2022-12-15T15:48:20.135Z,27.55
2022-12-15T15:50:51.890Z,28.38
2022-12-15T15:53:23.690Z,30.27
2022-12-15T15:55:56.171Z,29.73
2022-12-15T15:58:24.287Z,29.13
2022-12-15T16:00:54.834Z,29.85
2022-12-15T16:03:23.163Z,27.25
2022-12-15T16:05:51.425Z,27.67
2022-12-15T16:08:20.865Z,28.70
2022-12-15T16:10:50.606Z,25.60
2022-12-15T16:13:25.684Z,27.75
2022-12-15T16:15:54.289Z,25.90
2022-12-15T16:18:22.748Z,24.77
2022-12-15T16:20:52.239Z,23.13
2022-12-15T16:23:22.185Z,25.13
2022-12-15T16:25:53.970Z,26.55
2022-12-15T16:28:22.863Z,24.27
2022-12-15T16:30:51.511Z,25.98
2022-12-15T16:33:19.929Z,25.80
2022-12-15T16:35:52.637Z,24.45
2022-12-15T16:38:23.949Z,24.58
2022-12-15T16:40:55.419Z,25.77
2022-12-15T16:43:24.671Z,24.58
2022-12-15T16:45:53.617Z,24.42
2022-12-15T16:48:22.384Z,24.95
2022-12-15T16:50:51.881Z,23.10
2022-12-15T16:53:21.775Z,22.95
2022-12-15T16:55:52.107Z,23.05
2022-12-15T16:58:21.990Z,23.70
2022-12-15T17:00:50.716Z,27.80
2022-12-15T17:03:23.374Z,26.33
2022-12-15T17:05:52.598Z,23.02
2022-12-15T17:08:22.507Z,23.58
2022-12-15T17:10:51.475Z,23.40
2022-12-15T17:13:28.518Z,21.85
2022-12-15T17:16:00.137Z,21.80
2022-12-15T17:18:29.366Z,20.80
2022-12-15T17:21:03.006Z,18.67
2022-12-15T17:23:31.599Z,16.90
2022-12-15T17:26:22.504Z,18.60
2022-12-15T17:28:49.996Z,17.52
2022-12-15T17:31:19.015Z,18.30
2022-12-15T17:33:49.853Z,19.05
2022-12-15T17:36:20.774Z,19.73
2022-12-15T17:38:54.019Z,21.17
2022-12-15T17:41:57.474Z,21.67
2022-12-15T17:44:32.956Z,23.23
2022-12-15T17:47:02.718Z,24.60
2022-12-15T17:49:35.445Z,24.67
2022-12-15T17:52:06.722Z,25.45
2022-12-15T17:54:35.635Z,23.40
2022-12-15T17:57:04.171Z,23.45
2022-12-15T17:59:34.234Z,22.10
2022-12-15T18:02:02.745Z,22.42
2022-12-15T18:04:31.438Z,23.20
2022-12-15T18:07:01.997Z,23.08
2022-12-15T18:09:31.118Z,23.27
2022-12-15T18:11:59.148Z,23.92
2022-12-15T18:14:29.098Z,23.38
2022-12-15T18:16:58.998Z,23.02
2022-12-15T18:19:31.656Z,21.80
2022-12-15T18:22:03.163Z,23.83
2022-12-15T18:24:31.627Z,21.58
2022-12-15T18:27:00.292Z,18.42
2022-12-15T18:29:28.860Z,20.25
2022-12-15T18:31:58.510Z,17.92
2022-12-15T18:34:27.152Z,18.77
2022-12-15T18:36:55.499Z,19.15
2022-12-15T18:39:24.527Z,19.17
2022-12-15T18:41:54.826Z,18.08
2022-12-15T18:44:23.987Z,16.40
2022-12-15T18:46:52.413Z,13.93
2022-12-15T18:49:24.826Z,14.43
2022-12-15T18:51:53.061Z,14.30
2022-12-15T18:54:22.190Z,13.98
2022-12-15T18:56:50.757Z,11.98
2022-12-15T18:59:37.178Z,13.45
2022-12-15T19:02:05.519Z,12.13
2022-12-15T19:04:37.215Z,12.77
2022-12-15T19:07:07.796Z,12.65
2022-12-15T19:09:36.067Z,11.77
2022-12-15T19:12:19.950Z,10.98
2022-12-15T19:14:50.119Z,10.18
2022-12-15T19:17:36.482Z,11.32
2022-12-15T19:20:25.030Z,11.23
2022-12-15T19:22:54.252Z,9.10
2022-12-15T19:25:26.180Z,10.68
2022-12-15T19:27:59.092Z,9.10
2022-12-15T19:30:28.327Z,10.13
2022-12-15T19:32:56.796Z,9.93
2022-12-15T19:35:27.405Z,10.20
2022-12-15T19:37:57.134Z,10.57
2022-12-15T19:40:29.385Z,9.30
2022-12-15T19:43:00.324Z,9.27
2022-12-15T19:45:29.409Z,8.85
2022-12-15T19:47:58.044Z,7.93
2022-12-15T19:50:29.013Z,7.20
2022-12-15T19:52:59.306Z,6.00
2022-12-15T19:55:29.432Z,6.40
2022-12-15T19:57:58.037Z,6.32
2022-12-15T20:00:29.633Z,5.80
2022-12-15T20:02:59.261Z,6.00
2022-12-15T20:05:30.049Z,5.55
2022-12-15T20:07:58.578Z,5.78
2022-12-15T20:10:32.330Z,5.97
2022-12-15T20:13:01.324Z,5.93
2022-12-15T20:15:33.117Z,4.95
2022-12-15T20:18:11.778Z,5.28
2022-12-15T20:20:42.434Z,5.10
2022-12-15T20:23:14.285Z,4.60
2022-12-15T20:25:46.091Z,4.80
2022-12-15T20:28:54.771Z,5.00
2022-12-15T20:32:08.431Z,4.72
2022-12-15T20:34:47.590Z,5.03
2022-12-15T20:40:24.632Z,6.32
2022-12-15T20:42:58.954Z,7.18
2022-12-15T20:45:32.681Z,6.55
2022-12-15T20:48:04.262Z,6.57
2022-12-15T20:50:39.196Z,7.18
2022-12-15T20:53:15.177Z,7.65
2022-12-15T20:55:49.229Z,7.70
2022-12-15T20:58:17.755Z,7.30
2022-12-15T21:00:46.983Z,8.02
2022-12-15T21:03:22.568Z,8.00
2022-12-15T21:05:52.782Z,7.95
2022-12-15T21:08:25.112Z,8.68
2022-12-15T21:10:56.011Z,7.68
2022-12-15T21:13:29.034Z,9.52
2022-12-15T21:15:58.154Z,9.25
2022-12-15T21:19:03.956Z,8.25
2022-12-15T21:21:18.890Z,7.70
2022-12-15T21:23:54.762Z,7.97
2022-12-15T21:26:24.076Z,7.60
2022-12-15T21:29:00.225Z,7.95
2022-12-15T21:31:28.624Z,6.82
2022-12-15T21:33:56.826Z,7.30
2022-12-15T21:36:25.107Z,7.35
2022-12-15T21:38:54.861Z,6.07
2022-12-15T21:41:25.130Z,7.43
2022-12-15T21:43:57.466Z,6.90
2022-12-15T21:46:28.962Z,6.15
2022-12-15T21:49:15.021Z,6.45
2022-12-15T21:51:44.673Z,6.22
2022-12-15T21:54:19.421Z,5.85
2022-12-15T21:56:48.099Z,6.13
2022-12-15T21:59:17.210Z,5.97
2022-12-15T22:01:45.889Z,6.15
2022-12-15T22:04:18.515Z,6.35
2022-12-15T22:07:07.418Z,6.40
2022-12-15T22:09:36.937Z,5.72
2022-12-15T22:12:05.711Z,5.50
2022-12-15T22:14:50.873Z,5.30
2022-12-15T22:20:55.935Z,5.07
2022-12-15T22:23:51.030Z,5.82
2022-12-15T22:26:39.143Z,4.93
2022-12-15T22:29:23.076Z,5.00
2022-12-15T22:32:00.076Z,5.72
2022-12-15T22:34:43.560Z,5.35
2022-12-15T22:37:12.011Z,5.70
2022-12-15T22:42:31.073Z,7.75
2022-12-15T22:45:11.897Z,10.65
2022-12-15T22:47:40.127Z,10.82
2022-12-15T22:50:16.398Z,11.43
2022-12-15T22:52:45.997Z,21.33
2022-12-15T22:55:20.454Z,15.43
2022-12-15T22:57:54.906Z,17.35
2022-12-15T23:00:31.324Z,17.15
2022-12-15T23:03:02.233Z,13.82
2022-12-15T23:05:33.614Z,14.57
2022-12-15T23:08:03.511Z,14.82
2022-12-15T23:10:50.021Z,13.60
2022-12-15T23:13:29.848Z,15.02
2022-12-15T23:16:19.590Z,14.52
2022-12-15T23:18:58.841Z,15.68
2022-12-15T23:21:27.733Z,33.30
2022-12-15T23:23:56.282Z,18.73
2022-12-15T23:26:25.956Z,17.42
2022-12-15T23:28:55.124Z,18.52
2022-12-15T23:31:24.792Z,19.45
2022-12-15T23:33:53.404Z,18.65
2022-12-15T23:36:21.768Z,18.85
2022-12-15T23:38:50.381Z,12.43
2022-12-15T23:41:20.152Z,10.98
2022-12-15T23:43:48.188Z,8.80
2022-12-15T23:46:16.598Z,5.80
2022-12-15T23:48:46.064Z,6.20
2022-12-15T23:51:15.229Z,5.50
2022-12-15T23:53:44.399Z,5.95
2022-12-15T23:56:14.121Z,6.22
2022-12-15T23:58:43.112Z,5.75
